Time,TemperatureF,DewpointF,PressureIn,WindDirection,WindDirectionDegrees,WindSpeedMPH,WindSpeedGustMPH,Humidity,HourlyPrecipIn,Conditions,Clouds,dailyrainin,SolarRadiationWatts/m^2,SoftwareType,DateUTC
2013-03-19 00:02:00,68.0,67.0,-100.00,South,181,0.0,7.0,97,-99.99,,,0.00,0.000000,,2013-03-19 05:02:00,
2013-03-19 00:12:00,68.0,67.0,-100.00,South,181,0.0,7.0,97,-99.99,,,0.00,0.000000,,2013-03-19 05:12:00,
2013-03-19 00:22:00,68.0,67.0,-100.00,South,181,0.0,7.0,97,-99.99,,,0.00,0.000000,,2013-03-19 05:22:00,
2013-03-19 00:52:00,68.0,67.0,-100.00,NNE,32,0.0,7.0,97,0.00,,,0.00,0.000000,,2013-03-19 05:52:00,
2013-03-19 01:02:00,68.0,67.0,-100.00,NNE,32,0.0,7.0,97,0.00,,,0.00,0.000000,,2013-03-19 06:02:00,
2013-03-19 01:12:00,68.0,67.0,-100.00,NNE,32,0.0,7.0,97,0.00,,,0.00,0.000000,,2013-03-19 06:12:00,
2013-03-19 01:22:00,68.0,67.0,-100.00,NNE,32,0.0,7.0,97,0.00,,,0.00,0.000000,,2013-03-19 06:22:00,
2013-03-19 01:52:00,65.0,64.0,-100.00,NE,49,3.0,8.0,97,0.00,,,0.00,0.000000,,2013-03-19 06:52:00,
2013-03-19 02:02:00,65.0,64.0,-100.00,NE,49,3.0,8.0,97,0.00,,,0.00,0.000000,,2013-03-19 07:02:00,
2013-03-19 02:12:00,65.0,64.0,-100.00,NE,49,3.0,8.0,97,0.00,,,0.00,0.000000,,2013-03-19 07:12:00,
2013-03-19 02:21:00,65.0,64.0,-100.00,NE,49,3.0,8.0,97,0.00,,,0.00,0.000000,,2013-03-19 07:21:00,
2013-03-19 02:53:00,62.0,60.0,-100.00,NNE,19,2.0,13.0,92,0.00,,,0.00,0.000000,,2013-03-19 07:53:00,
2013-03-19 03:03:00,62.0,60.0,-100.00,NNE,19,2.0,13.0,92,0.00,,,0.00,0.000000,,2013-03-19 08:03:00,
2013-03-19 03:12:00,62.0,60.0,-100.00,NNE,19,2.0,13.0,92,0.00,,,0.00,0.000000,,2013-03-19 08:12:00,
2013-03-19 03:22:00,62.0,60.0,-100.00,NNE,19,2.0,13.0,92,0.00,,,0.00,0.000000,,2013-03-19 08:22:00,
2013-03-19 03:52:00,62.0,57.0,-100.00,North,2,5.0,10.0,84,0.00,,,0.00,0.000000,,2013-03-19 08:52:00,
2013-03-19 04:02:00,62.0,57.0,-100.00,North,2,5.0,10.0,84,0.00,,,0.00,0.000000,,2013-03-19 09:02:00,
2013-03-19 04:12:00,62.0,57.0,-100.00,North,2,5.0,10.0,84,0.00,,,0.00,0.000000,,2013-03-19 09:12:00,
2013-03-19 04:22:00,62.0,57.0,-100.00,North,2,5.0,10.0,84,0.00,,,0.00,0.000000,,2013-03-19 09:22:00,
2013-03-19 04:53:00,62.0,57.0,-100.00,North,4,6.0,12.0,84,0.00,,,0.00,0.000000,,2013-03-19 09:53:00,
2013-03-19 05:03:00,62.0,57.0,-100.00,North,4,6.0,12.0,84,0.00,,,0.00,0.000000,,2013-03-19 10:03:00,
2013-03-19 05:12:00,62.0,57.0,-100.00,North,4,6.0,12.0,84,0.00,,,0.00,0.000000,,2013-03-19 10:12:00,
2013-03-19 05:23:00,62.0,57.0,-100.00,North,4,6.0,12.0,84,0.00,,,0.00,0.000000,,2013-03-19 10:23:00,
2013-03-19 05:53:00,60.0,55.0,-100.00,North,1,7.0,14.0,84,0.00,,,0.00,0.000000,,2013-03-19 10:53:00,
2013-03-19 06:02:00,60.0,55.0,-100.00,North,1,7.0,14.0,84,0.00,,,0.00,0.000000,,2013-03-19 11:02:00,
2013-03-19 06:12:00,60.0,55.0,-100.00,North,1,7.0,14.0,84,0.00,,,0.00,0.000000,,2013-03-19 11:12:00,
2013-03-19 06:22:00,60.0,55.0,-100.00,North,1,7.0,14.0,84,0.00,,,0.00,0.000000,,2013-03-19 11:22:00,
2013-03-19 06:52:00,59.0,54.0,-100.00,NNE,21,7.0,14.0,84,0.00,,,0.00,0.000000,,2013-03-19 11:52:00,
2013-03-19 07:02:00,59.0,54.0,-100.00,NNE,21,7.0,14.0,84,0.00,,,0.00,0.000000,,2013-03-19 12:02:00,
2013-03-19 07:12:00,59.0,54.0,-100.00,NNE,21,7.0,14.0,84,0.00,,,0.00,0.000000,,2013-03-19 12:12:00,
2013-03-19 07:22:00,59.0,54.0,-100.00,NNE,21,7.0,14.0,84,0.00,,,0.00,0.000000,,2013-03-19 12:22:00,
2013-03-19 07:52:00,58.0,54.0,-100.00,North,7,5.0,17.0,85,0.00,,,0.00,8.000000,,2013-03-19 12:52:00,
2013-03-19 08:02:00,58.0,54.0,-100.00,North,7,5.0,17.0,85,0.00,,,0.00,8.000000,,2013-03-19 13:02:00,
2013-03-19 08:12:00,58.0,54.0,-100.00,North,7,5.0,17.0,85,0.00,,,0.00,8.000000,,2013-03-19 13:12:00,
2013-03-19 08:22:00,58.0,54.0,-100.00,North,7,5.0,17.0,85,0.00,,,0.00,8.000000,,2013-03-19 13:22:00,
2013-03-19 08:53:00,59.0,51.0,-100.00,North,11,6.0,14.0,76,0.00,,,0.00,130.000000,,2013-03-19 13:53:00,
2013-03-19 09:02:00,59.0,51.0,-100.00,North,11,6.0,14.0,76,0.00,,,0.00,130.000000,,2013-03-19 14:02:00,
2013-03-19 09:12:00,59.0,51.0,-100.00,North,11,6.0,14.0,76,0.00,,,0.00,130.000000,,2013-03-19 14:12:00,
2013-03-19 09:22:00,59.0,51.0,-100.00,North,11,6.0,14.0,76,0.00,,,0.00,130.000000,,2013-03-19 14:22:00,
2013-03-19 09:52:00,63.0,51.0,-100.00,NE,43,6.0,18.0,66,0.00,,,0.00,402.000000,,2013-03-19 14:52:00,
2013-03-19 10:02:00,63.0,51.0,-100.00,NE,43,6.0,18.0,66,0.00,,,0.00,402.000000,,2013-03-19 15:02:00,
2013-03-19 10:12:00,63.0,51.0,-100.00,NE,43,6.0,18.0,66,0.00,,,0.00,402.000000,,2013-03-19 15:12:00,
2013-03-19 10:22:00,63.0,51.0,-100.00,NE,43,6.0,18.0,66,0.00,,,0.00,402.000000,,2013-03-19 15:22:00,
2013-03-19 10:53:00,67.0,51.0,-100.00,NE,50,5.0,11.0,57,0.00,,,0.00,665.000000,,2013-03-19 15:53:00,
2013-03-19 11:04:00,67.0,51.0,-100.00,NE,50,5.0,11.0,57,0.00,,,0.00,665.000000,,2013-03-19 16:04:00,
2013-03-19 11:13:00,67.0,51.0,-100.00,NE,50,5.0,11.0,57,0.00,,,0.00,665.000000,,2013-03-19 16:13:00,
2013-03-19 11:24:00,67.0,51.0,-100.00,NE,50,5.0,11.0,57,0.00,,,0.00,665.000000,,2013-03-19 16:24:00,
2013-03-19 11:54:00,71.0,48.0,-100.00,NE,51,5.0,14.0,44,0.00,,,0.00,871.000000,,2013-03-19 16:54:00,
2013-03-19 12:03:00,71.0,48.0,-100.00,NE,51,5.0,14.0,44,0.00,,,0.00,871.000000,,2013-03-19 17:03:00,
2013-03-19 12:13:00,71.0,48.0,-100.00,NE,51,5.0,14.0,44,0.00,,,0.00,871.000000,,2013-03-19 17:13:00,
2013-03-19 12:23:00,71.0,48.0,-100.00,NE,51,5.0,14.0,44,0.00,,,0.00,871.000000,,2013-03-19 17:23:00,
2013-03-19 12:53:00,73.0,47.0,-100.00,ENE,72,5.0,14.0,40,0.00,,,0.00,997.000000,,2013-03-19 17:53:00,
2013-03-19 13:03:00,73.0,47.0,-100.00,ENE,72,5.0,14.0,40,0.00,,,0.00,997.000000,,2013-03-19 18:03:00,
2013-03-19 13:13:00,73.0,47.0,-100.00,ENE,72,5.0,14.0,40,0.00,,,0.00,997.000000,,2013-03-19 18:13:00,
2013-03-19 13:23:00,73.0,47.0,-100.00,ENE,72,5.0,14.0,40,0.00,,,0.00,997.000000,,2013-03-19 18:23:00,
2013-03-19 13:53:00,74.0,47.0,-100.00,NE,50,7.0,13.0,39,0.00,,,0.00,1025.000000,,2013-03-19 18:53:00,
2013-03-19 14:02:00,74.0,47.0,-100.00,NE,50,7.0,13.0,39,0.00,,,0.00,1025.000000,,2013-03-19 19:02:00,
2013-03-19 14:12:00,74.0,47.0,-100.00,NE,50,7.0,13.0,39,0.00,,,0.00,1025.000000,,2013-03-19 19:12:00,
2013-03-19 14:22:00,74.0,47.0,-100.00,NE,50,7.0,13.0,39,0.00,,,0.00,1025.000000,,2013-03-19 19:22:00,
2013-03-19 14:53:00,75.0,52.0,-100.00,SSE,151,5.0,11.0,44,0.00,,,0.00,777.000000,,2013-03-19 19:53:00,
2013-03-19 15:03:00,75.0,52.0,-100.00,SSE,151,5.0,11.0,44,0.00,,,0.00,777.000000,,2013-03-19 20:03:00,
2013-03-19 15:12:00,75.0,52.0,-100.00,SSE,151,5.0,11.0,44,0.00,,,0.00,777.000000,,2013-03-19 20:12:00,
2013-03-19 15:22:00,75.0,52.0,-100.00,SSE,151,5.0,11.0,44,0.00,,,0.00,777.000000,,2013-03-19 20:22:00,
2013-03-19 15:53:00,79.0,50.0,-100.00,ESE,103,4.0,9.0,37,0.00,,,0.00,816.000000,,2013-03-19 20:53:00,
2013-03-19 16:02:00,79.0,50.0,-100.00,ESE,103,4.0,9.0,37,0.00,,,0.00,816.000000,,2013-03-19 21:02:00,
2013-03-19 16:12:00,79.0,50.0,-100.00,ESE,103,4.0,9.0,37,0.00,,,0.00,816.000000,,2013-03-19 21:12:00,
2013-03-19 16:22:00,79.0,50.0,-100.00,ESE,103,4.0,9.0,37,0.00,,,0.00,816.000000,,2013-03-19 21:22:00,
2013-03-19 16:53:00,76.0,54.0,-100.00,SE,144,6.0,10.0,46,0.00,,,0.00,696.000000,,2013-03-19 21:53:00,
2013-03-19 17:03:00,76.0,54.0,-100.00,SE,144,6.0,10.0,46,0.00,,,0.00,696.000000,,2013-03-19 22:03:00,
2013-03-19 17:13:00,76.0,54.0,-100.00,SE,144,6.0,10.0,46,0.00,,,0.00,696.000000,,2013-03-19 22:13:00,
2013-03-19 17:23:00,76.0,54.0,-100.00,SE,144,6.0,10.0,46,0.00,,,0.00,696.000000,,2013-03-19 22:23:00,
2013-03-19 17:53:00,74.0,57.0,-100.00,SSE,167,5.0,10.0,56,0.00,,,0.00,463.000000,,2013-03-19 22:53:00,
2013-03-19 18:03:00,74.0,57.0,-100.00,SSE,167,5.0,10.0,56,0.00,,,0.00,463.000000,,2013-03-19 23:03:00,
2013-03-19 18:12:00,74.0,57.0,-100.00,SSE,167,5.0,10.0,56,0.00,,,0.00,463.000000,,2013-03-19 23:12:00,
2013-03-19 18:22:00,74.0,57.0,-100.00,SSE,167,5.0,10.0,56,0.00,,,0.00,463.000000,,2013-03-19 23:22:00,
2013-03-19 18:53:00,71.0,58.0,-100.00,SSE,157,3.0,10.0,63,0.00,,,0.00,214.000000,,2013-03-19 23:53:00,
2013-03-19 19:03:00,71.0,58.0,-100.00,SSE,157,3.0,10.0,63,0.00,,,0.00,214.000000,,2013-03-20 00:03:00,
2013-03-19 19:13:00,71.0,58.0,-100.00,SSE,157,3.0,10.0,63,0.00,,,0.00,214.000000,,2013-03-20 00:13:00,
2013-03-19 19:22:00,71.0,58.0,-100.00,SSE,157,3.0,10.0,63,0.00,,,0.00,214.000000,,2013-03-20 00:22:00,
2013-03-19 19:52:00,63.0,58.0,-100.00,SSE,149,0.0,6.0,83,0.00,,,0.00,21.000000,,2013-03-20 00:52:00,
2013-03-19 20:03:00,63.0,58.0,-100.00,SSE,149,0.0,6.0,83,0.00,,,0.00,21.000000,,2013-03-20 01:03:00,
2013-03-19 20:12:00,63.0,58.0,-100.00,SSE,149,0.0,6.0,83,0.00,,,0.00,21.000000,,2013-03-20 01:12:00,
2013-03-19 20:22:00,63.0,58.0,-100.00,SSE,149,0.0,6.0,83,0.00,,,0.00,21.000000,,2013-03-20 01:22:00,
2013-03-19 20:53:00,59.0,56.0,-100.00,NNE,28,0.0,2.0,90,0.00,,,0.00,0.000000,,2013-03-20 01:53:00,
2013-03-19 21:02:00,59.0,56.0,-100.00,NNE,28,0.0,2.0,90,0.00,,,0.00,0.000000,,2013-03-20 02:02:00,
2013-03-19 21:12:00,59.0,56.0,-100.00,NNE,28,0.0,2.0,90,0.00,,,0.00,0.000000,,2013-03-20 02:12:00,
2013-03-19 21:22:00,59.0,56.0,-100.00,NNE,28,0.0,2.0,90,0.00,,,0.00,0.000000,,2013-03-20 02:22:00,
2013-03-19 21:53:00,56.0,55.0,-100.00,SSE,168,0.0,2.0,95,0.00,,,-99.99,0.000000,,2013-03-20 02:53:00,
2013-03-19 22:02:00,56.0,55.0,-100.00,SSE,168,0.0,2.0,95,0.00,,,-99.99,0.000000,,2013-03-20 03:02:00,
2013-03-19 22:12:00,56.0,55.0,-100.00,SSE,168,0.0,2.0,95,0.00,,,-99.99,0.000000,,2013-03-20 03:12:00,
2013-03-19 22:22:00,56.0,55.0,-100.00,SSE,168,0.0,2.0,95,0.00,,,-99.99,0.000000,,2013-03-20 03:22:00,
2013-03-19 22:53:00,54.0,53.0,-100.00,NNW,347,1.0,3.0,95,0.00,,,-99.99,0.000000,,2013-03-20 03:53:00,
2013-03-19 23:03:00,54.0,53.0,-100.00,NNW,347,1.0,3.0,95,0.00,,,-99.99,0.000000,,2013-03-20 04:03:00,
2013-03-19 23:12:00,54.0,53.0,-100.00,NNW,347,1.0,3.0,95,0.00,,,-99.99,0.000000,,2013-03-20 04:12:00,
2013-03-19 23:23:00,54.0,53.0,-100.00,NNW,347,1.0,3.0,95,0.00,,,-99.99,0.000000,,2013-03-20 04:23:00,
2013-03-19 23:53:00,54.0,53.0,-100.00,NE,53,0.0,2.0,96,0.00,,,0.00,0.000000,,2013-03-20 04:53:00,